createdAt,value
2023-01-17T00:02:06.823Z,97908.50
2023-01-17T00:04:52.605Z,97906.81
2023-01-17T00:07:40.306Z,97894.56
2023-01-17T00:10:10.485Z,97890.91
2023-01-17T00:12:40.066Z,97882.56
2023-01-17T00:15:09.356Z,97898.19
2023-01-17T00:17:37.232Z,97884.75
2023-01-17T00:20:23.220Z,97884.78
2023-01-17T00:23:08.488Z,97876.81
2023-01-17T00:25:57.138Z,97880.63
2023-01-17T00:28:26.635Z,97884.94
2023-01-17T00:30:53.790Z,97884.78
2023-01-17T00:33:22.106Z,97884.28
2023-01-17T00:35:49.430Z,97878.97
2023-01-17T00:38:17.952Z,97876.28
2023-01-17T00:40:46.002Z,97876.47
2023-01-17T00:43:33.403Z,97875.28
2023-01-17T00:46:20.333Z,97863.69
2023-01-17T00:49:05.449Z,97864.19
2023-01-17T00:51:52.172Z,97877.97
2023-01-17T00:54:38.092Z,97879.09
2023-01-17T00:57:24.438Z,97876.09
2023-01-17T01:00:10.003Z,97867.34
2023-01-17T01:02:57.432Z,97859.03
2023-01-17T01:05:43.059Z,97866.34
2023-01-17T01:08:36.075Z,97862.69
2023-01-17T01:11:24.211Z,97873.25
2023-01-17T01:14:09.397Z,97865.66
2023-01-17T01:16:54.759Z,97873.13
2023-01-17T01:19:41.356Z,97866.03
2023-01-17T01:22:26.470Z,97851.75
2023-01-17T01:25:11.880Z,97851.94
2023-01-17T01:27:57.193Z,97852.25
2023-01-17T01:30:42.420Z,97849.75
2023-01-17T01:33:18.851Z,97850.25
2023-01-17T01:35:49.544Z,97846.28
2023-01-17T01:38:18.003Z,97841.78
2023-01-17T01:40:47.731Z,97849.06
2023-01-17T01:43:17.798Z,97849.91
2023-01-17T01:45:50.714Z,97838.81
2023-01-17T01:48:31.258Z,97838.66
2023-01-17T01:51:02.355Z,97832.16
2023-01-17T01:53:32.650Z,97823.88
2023-01-17T01:56:00.650Z,97826.88
2023-01-17T01:58:33.129Z,97826.22
2023-01-17T02:01:01.098Z,97829.00
2023-01-17T02:03:32.884Z,97840.41
2023-01-17T02:06:13.199Z,97827.19
2023-01-17T02:08:42.325Z,97830.66
2023-01-17T02:11:10.608Z,97818.22
2023-01-17T02:13:38.482Z,97827.84
2023-01-17T02:16:15.196Z,97818.06
2023-01-17T02:18:57.298Z,97822.53
2023-01-17T02:21:31.251Z,97819.06
2023-01-17T02:24:31.100Z,97815.59
2023-01-17T02:27:04.156Z,97812.28
2023-01-17T02:30:08.711Z,97817.56
2023-01-17T02:32:48.034Z,97821.25
2023-01-17T02:35:28.136Z,97822.22
2023-01-17T02:38:04.296Z,97817.88
2023-01-17T02:40:39.429Z,97812.41
2023-01-17T02:43:11.752Z,97807.59
2023-01-17T02:45:39.754Z,97812.59
2023-01-17T02:48:11.973Z,97815.91
2023-01-17T02:50:58.579Z,97813.19
2023-01-17T02:53:40.413Z,97809.59
2023-01-17T02:56:20.793Z,97807.44
2023-01-17T02:59:06.695Z,97811.88
2023-01-17T03:01:43.962Z,97808.16
2023-01-17T03:04:18.075Z,97822.09
2023-01-17T03:06:53.125Z,97818.94
2023-01-17T03:09:22.288Z,97824.88
2023-01-17T03:11:50.427Z,97825.91
2023-01-17T03:14:18.477Z,97825.81
2023-01-17T03:16:47.287Z,97831.41
2023-01-17T03:19:16.687Z,97827.69
2023-01-17T03:21:44.665Z,97820.66
2023-01-17T03:24:12.697Z,97817.09
2023-01-17T03:26:40.741Z,97818.44
2023-01-17T03:29:08.745Z,97819.09
2023-01-17T03:31:36.837Z,97819.72
2023-01-17T03:34:04.932Z,97820.69
2023-01-17T03:36:34.373Z,97813.13
2023-01-17T03:39:03.023Z,97827.81
2023-01-17T03:41:31.105Z,97816.75
2023-01-17T03:43:59.072Z,97829.72
2023-01-17T03:46:28.619Z,97815.44
2023-01-17T03:48:56.733Z,97823.09
2023-01-17T03:51:24.885Z,97826.41
2023-01-17T03:53:54.600Z,97825.56
2023-01-17T03:56:22.604Z,97818.38
2023-01-17T03:58:51.544Z,97829.19
2023-01-17T04:01:20.036Z,97828.59
2023-01-17T04:03:48.119Z,97835.81
2023-01-17T04:06:16.269Z,97827.63
2023-01-17T04:08:44.399Z,97835.84
2023-01-17T04:11:13.704Z,97839.31
2023-01-17T04:13:41.650Z,97828.06
2023-01-17T04:16:14.311Z,97835.00
2023-01-17T04:18:42.368Z,97842.66
2023-01-17T04:21:10.327Z,97842.34
2023-01-17T04:23:38.439Z,97844.84
2023-01-17T04:26:06.578Z,97843.66
2023-01-17T04:28:35.834Z,97843.09
2023-01-17T04:31:03.845Z,97846.13
2023-01-17T04:33:31.961Z,97848.28
2023-01-17T04:36:00.123Z,97853.09
2023-01-17T04:38:28.156Z,97844.38
2023-01-17T04:40:56.164Z,97849.25
2023-01-17T04:43:24.163Z,97855.34
2023-01-17T04:45:57.480Z,97858.66
2023-01-17T04:48:26.168Z,97859.81
2023-01-17T04:51:00.923Z,97866.19
2023-01-17T04:53:29.023Z,97871.56
2023-01-17T04:55:57.111Z,97871.09
2023-01-17T04:58:25.218Z,97876.03
2023-01-17T05:00:53.209Z,97880.19
2023-01-17T05:03:24.081Z,97874.50
2023-01-17T05:05:52.185Z,97883.72
2023-01-17T05:08:20.068Z,97888.00
2023-01-17T05:10:48.332Z,97897.31
2023-01-17T05:13:16.481Z,97892.81
2023-01-17T05:15:44.806Z,97890.16
2023-01-17T05:18:13.822Z,97883.63
2023-01-17T05:20:43.217Z,97910.44
2023-01-17T05:23:12.027Z,97905.78
2023-01-17T05:25:44.529Z,97911.22
2023-01-17T05:28:13.244Z,97914.78
2023-01-17T05:30:41.613Z,97928.41
2023-01-17T05:33:10.279Z,97926.72
2023-01-17T05:35:38.573Z,97937.56
2023-01-17T05:38:07.811Z,97930.06
2023-01-17T05:40:35.731Z,97938.00
2023-01-17T05:43:04.602Z,97938.03
2023-01-17T05:45:34.159Z,97929.72
2023-01-17T05:48:02.831Z,97928.03
2023-01-17T05:50:33.400Z,97936.00
2023-01-17T05:53:03.394Z,97949.97
2023-01-17T05:55:33.748Z,97961.47
2023-01-17T05:58:02.331Z,97959.28
2023-01-17T06:00:30.792Z,97975.75
2023-01-17T06:03:00.902Z,97960.75
2023-01-17T06:05:30.123Z,97978.84
2023-01-17T06:07:58.338Z,97968.34
2023-01-17T06:10:26.820Z,97982.38
2023-01-17T06:13:04.761Z,97986.16
2023-01-17T06:15:32.961Z,97982.31
2023-01-17T06:18:05.873Z,97995.19
2023-01-17T06:20:34.567Z,97987.03
2023-01-17T06:23:04.378Z,97990.88
2023-01-17T06:25:36.687Z,97996.34
2023-01-17T06:28:06.771Z,97995.81
2023-01-17T06:30:35.007Z,97997.00
2023-01-17T06:33:03.030Z,97991.38
2023-01-17T06:35:31.039Z,97987.50
2023-01-17T06:38:00.412Z,97998.50
2023-01-17T06:40:29.232Z,98007.44
2023-01-17T06:43:01.588Z,98013.16
2023-01-17T06:45:31.565Z,98006.47
2023-01-17T06:48:00.665Z,98008.47
2023-01-17T06:50:28.592Z,98022.25
2023-01-17T06:52:57.575Z,98010.13
2023-01-17T06:55:28.741Z,98014.78
2023-01-17T06:57:56.969Z,98030.41
2023-01-17T07:00:25.258Z,98034.22
2023-01-17T07:02:54.775Z,98031.44
2023-01-17T07:05:23.230Z,98039.03
2023-01-17T07:07:51.125Z,98044.03
2023-01-17T07:10:19.314Z,98054.03
2023-01-17T07:12:47.535Z,98049.50
2023-01-17T07:15:15.549Z,98045.72
2023-01-17T07:17:43.451Z,98062.44
2023-01-17T07:20:13.507Z,98054.34
2023-01-17T07:22:45.300Z,98061.00
2023-01-17T07:25:13.263Z,98061.31
2023-01-17T07:27:41.126Z,98061.31
2023-01-17T07:30:10.659Z,98079.41
2023-01-17T07:32:38.817Z,98071.94
2023-01-17T07:35:07.901Z,98086.03
2023-01-17T07:37:37.116Z,98075.47
2023-01-17T07:40:05.757Z,98062.13
2023-01-17T07:42:33.658Z,98081.38
2023-01-17T07:45:02.167Z,98077.56
2023-01-17T07:47:30.562Z,98092.00
2023-01-17T07:49:58.468Z,98078.56
2023-01-17T07:52:26.351Z,98094.16
2023-01-17T07:54:55.683Z,98096.88
2023-01-17T07:57:23.684Z,98087.38
2023-01-17T07:59:52.313Z,98096.22
2023-01-17T08:02:22.242Z,98092.22
2023-01-17T08:04:50.741Z,98097.56
2023-01-17T08:07:18.706Z,98092.88
2023-01-17T08:09:49.679Z,98108.47
2023-01-17T08:12:19.113Z,98099.19
2023-01-17T08:14:47.045Z,98093.56
2023-01-17T08:17:17.067Z,98116.16
2023-01-17T08:19:45.251Z,98100.03
2023-01-17T08:22:13.241Z,98104.69
2023-01-17T08:24:41.909Z,98108.50
2023-01-17T08:27:10.029Z,98109.19
2023-01-17T08:29:42.143Z,98107.34
2023-01-17T08:32:10.070Z,98122.16
2023-01-17T08:34:38.038Z,98119.16
2023-01-17T08:37:05.932Z,98120.81
2023-01-17T08:39:33.928Z,98126.63
2023-01-17T08:42:01.791Z,98129.47
2023-01-17T08:44:29.740Z,98126.41
2023-01-17T08:46:59.199Z,98133.63
2023-01-17T08:49:29.548Z,98135.13
2023-01-17T08:51:57.687Z,98125.47
2023-01-17T08:54:25.604Z,98138.09
2023-01-17T08:56:55.579Z,98129.47
2023-01-17T08:59:23.811Z,98139.59
2023-01-17T09:01:52.537Z,98141.84
2023-01-17T09:04:22.227Z,98139.25
2023-01-17T09:06:50.149Z,98141.41
2023-01-17T09:09:18.705Z,98146.22
2023-01-17T09:11:46.573Z,98158.53
2023-01-17T09:14:15.547Z,98151.56
2023-01-17T09:16:43.563Z,98151.56
2023-01-17T09:19:11.508Z,98158.72
2023-01-17T09:21:40.773Z,98169.84
2023-01-17T09:24:08.803Z,98170.34
2023-01-17T09:26:36.828Z,98179.31
2023-01-17T09:29:05.057Z,98176.81
2023-01-17T09:31:32.975Z,98174.69
2023-01-17T09:34:00.876Z,98174.69
2023-01-17T09:36:31.900Z,98172.84
2023-01-17T09:39:02.071Z,98204.78
2023-01-17T09:41:33.346Z,98201.34
2023-01-17T09:44:07.339Z,98206.28
2023-01-17T09:46:40.625Z,98207.22
2023-01-17T09:49:09.585Z,98221.41
2023-01-17T09:51:37.988Z,98218.25
2023-01-17T09:54:07.290Z,98223.25
2023-01-17T09:56:42.327Z,98232.91
2023-01-17T09:59:33.251Z,98230.53
2023-01-17T10:02:19.658Z,98233.91
2023-01-17T10:05:07.684Z,98241.69
2023-01-17T10:07:46.318Z,98242.22
2023-01-17T10:10:30.444Z,98253.53
2023-01-17T10:13:05.082Z,98253.19
2023-01-17T10:15:54.663Z,98264.81
2023-01-17T10:18:44.133Z,98264.00
2023-01-17T10:21:22.229Z,98255.34
2023-01-17T10:24:31.786Z,98277.00
2023-01-17T10:27:03.988Z,98277.00
2023-01-17T10:29:36.525Z,98280.75
2023-01-17T10:32:04.859Z,98291.44
2023-01-17T10:34:38.410Z,98292.13
2023-01-17T10:37:20.988Z,98296.94
2023-01-17T10:39:51.087Z,98303.94
2023-01-17T10:42:24.840Z,98302.78
2023-01-17T10:45:00.951Z,98308.75
2023-01-17T10:47:33.669Z,98303.09
2023-01-17T10:50:05.155Z,98314.22
2023-01-17T10:52:43.349Z,98308.56
2023-01-17T10:55:28.024Z,98322.03
2023-01-17T10:57:58.924Z,98324.31
2023-01-17T11:00:35.491Z,98323.00
2023-01-17T11:03:03.823Z,98331.72
2023-01-17T11:05:33.764Z,98335.66
2023-01-17T11:08:03.937Z,98334.69
2023-01-17T11:10:41.525Z,98334.13
2023-01-17T11:13:23.805Z,98359.94
2023-01-17T11:15:57.598Z,98340.53
2023-01-17T11:18:29.188Z,98347.06
2023-01-17T11:21:12.234Z,98350.34
2023-01-17T11:23:42.859Z,98360.16
2023-01-17T11:26:13.823Z,98361.66
2023-01-17T11:28:43.368Z,98372.91
2023-01-17T11:31:26.824Z,98381.56
2023-01-17T11:34:15.157Z,98373.19
2023-01-17T11:36:43.352Z,98377.78
2023-01-17T11:39:27.435Z,98394.19
2023-01-17T11:41:55.677Z,98400.94
2023-01-17T11:44:27.381Z,98401.66
2023-01-17T11:47:10.557Z,98404.75
2023-01-17T11:49:39.376Z,98395.59
2023-01-17T11:52:10.441Z,98399.50
2023-01-17T11:54:42.376Z,98409.06
2023-01-17T11:57:22.001Z,98410.19
2023-01-17T11:59:53.412Z,98400.91
2023-01-17T12:02:42.216Z,98399.38
2023-01-17T12:05:30.362Z,98406.22
2023-01-17T12:08:07.882Z,98403.63
2023-01-17T12:10:46.257Z,98413.44
2023-01-17T12:13:42.586Z,98401.19
2023-01-17T12:16:33.181Z,98399.69
2023-01-17T12:19:34.737Z,98398.19
2023-01-17T12:22:17.543Z,98404.13
2023-01-17T12:25:14.849Z,98408.41
2023-01-17T12:27:54.337Z,98406.22
2023-01-17T12:30:39.158Z,98407.16
2023-01-17T12:33:21.111Z,98404.66
2023-01-17T12:35:53.084Z,98432.94
2023-01-17T12:38:32.559Z,98407.44
2023-01-17T12:41:06.352Z,98420.53
2023-01-17T12:43:36.944Z,98413.84
2023-01-17T12:46:12.513Z,98420.50
2023-01-17T12:48:42.173Z,98416.81
2023-01-17T12:51:16.552Z,98414.09
2023-01-17T12:53:50.983Z,98424.41
2023-01-17T12:56:25.887Z,98447.00
2023-01-17T12:58:56.960Z,98424.97
2023-01-17T13:01:30.475Z,98438.28
2023-01-17T13:04:17.726Z,98432.53
2023-01-17T13:06:56.006Z,98439.72
2023-01-17T13:09:24.979Z,98443.84
2023-01-17T13:11:58.211Z,98441.09
2023-01-17T13:14:25.904Z,98435.16
2023-01-17T13:16:58.854Z,98450.06
2023-01-17T13:19:39.070Z,98459.09
2023-01-17T13:22:17.309Z,98447.16
2023-01-17T13:24:55.744Z,98453.97
2023-01-17T13:27:38.517Z,98451.00
2023-01-17T13:30:30.758Z,98458.50
2023-01-17T13:33:19.730Z,98466.19
2023-01-17T13:35:58.188Z,98471.00
2023-01-17T13:38:43.656Z,98476.44
2023-01-17T13:41:28.161Z,98492.53
2023-01-17T13:44:13.752Z,98493.22
2023-01-17T13:47:00.677Z,98488.25
2023-01-17T13:49:47.585Z,98498.78
2023-01-17T13:52:35.942Z,98501.66
2023-01-17T13:55:07.224Z,98498.22
2023-01-17T13:57:46.702Z,98511.34
2023-01-17T14:00:59.150Z,98508.78
2023-01-17T14:04:03.549Z,98510.69
2023-01-17T14:06:37.370Z,98507.69
2023-01-17T14:09:17.632Z,98508.16
2023-01-17T14:11:55.063Z,98519.72
2023-01-17T14:14:49.771Z,98521.34
2023-01-17T14:17:42.566Z,98517.41
2023-01-17T14:20:51.079Z,98530.44
2023-01-17T14:23:26.287Z,98539.78
2023-01-17T14:25:59.256Z,98547.13
2023-01-17T14:28:32.692Z,98558.38
2023-01-17T14:31:03.340Z,98560.53
2023-01-17T14:33:35.650Z,98557.69
2023-01-17T14:36:06.268Z,98564.38
2023-01-17T14:38:41.955Z,98570.84
2023-01-17T14:41:16.478Z,98572.19
2023-01-17T14:43:45.371Z,98577.28
2023-01-17T14:46:19.926Z,98578.88
2023-01-17T14:48:48.621Z,98577.88
2023-01-17T14:51:21.292Z,98589.91
2023-01-17T14:53:56.719Z,98583.28
2023-01-17T14:56:27.935Z,98577.66
2023-01-17T14:59:07.203Z,98580.22
2023-01-17T15:01:36.571Z,98582.00
2023-01-17T15:04:04.968Z,98583.13
2023-01-17T15:06:39.355Z,98583.84
2023-01-17T15:09:11.872Z,98599.22
2023-01-17T15:11:42.193Z,98592.31
2023-01-17T15:14:19.817Z,98597.94
2023-01-17T15:16:47.966Z,98602.22
2023-01-17T15:19:16.477Z,98602.81
2023-01-17T15:21:46.781Z,98605.44
2023-01-17T15:24:19.982Z,98605.91
2023-01-17T15:26:50.123Z,98607.66
2023-01-17T15:29:25.231Z,98614.47
2023-01-17T15:31:55.112Z,98620.97
2023-01-17T15:34:28.610Z,98619.44
2023-01-17T15:36:58.569Z,98616.84
2023-01-17T15:39:30.192Z,98625.09
2023-01-17T15:42:01.679Z,98628.22
2023-01-17T15:44:50.292Z,98628.94
2023-01-17T15:47:28.816Z,98627.31
2023-01-17T15:49:56.732Z,98625.25
2023-01-17T15:52:24.644Z,98628.53
2023-01-17T15:54:54.571Z,98631.66
2023-01-17T15:57:28.306Z,98642.66
2023-01-17T15:59:59.529Z,98637.91
2023-01-17T16:02:33.132Z,98639.06
2023-01-17T16:05:02.425Z,98644.53
2023-01-17T16:07:34.068Z,98651.81
2023-01-17T16:10:14.800Z,98653.47
2023-01-17T16:12:44.193Z,98652.63
2023-01-17T16:15:13.514Z,98654.06
2023-01-17T16:17:44.626Z,98656.88
2023-01-17T16:20:19.703Z,98644.28
2023-01-17T16:22:48.359Z,98658.41
2023-01-17T16:25:18.819Z,98658.00
2023-01-17T16:27:48.556Z,98657.06
2023-01-17T16:30:19.258Z,98651.84
2023-01-17T16:32:48.707Z,98657.84
2023-01-17T16:35:20.765Z,98652.16
2023-01-17T16:37:50.407Z,98668.69
2023-01-17T16:40:19.071Z,98661.28
2023-01-17T16:42:48.636Z,98665.06
2023-01-17T16:45:17.591Z,98660.88
2023-01-17T16:47:47.363Z,98667.16
2023-01-17T16:50:17.941Z,98666.06
2023-01-17T16:52:45.841Z,98673.72
2023-01-17T16:55:16.004Z,98679.63
2023-01-17T16:57:43.985Z,98682.44
2023-01-17T17:00:14.622Z,98684.81
2023-01-17T17:02:42.588Z,98679.63
2023-01-17T17:05:11.537Z,98671.53
2023-01-17T17:07:42.859Z,98669.72
2023-01-17T17:10:11.714Z,98669.88
2023-01-17T17:12:39.540Z,98671.97
2023-01-17T17:15:08.458Z,98668.75
2023-01-17T17:17:38.040Z,98674.06
2023-01-17T17:20:07.518Z,98684.69
2023-01-17T17:22:35.401Z,98686.63
2023-01-17T17:25:05.251Z,98683.03
2023-01-17T17:27:33.321Z,98693.47
2023-01-17T17:30:01.270Z,98694.22
2023-01-17T17:32:29.301Z,98695.88
2023-01-17T17:34:58.541Z,98693.63
2023-01-17T17:37:28.969Z,98698.09
2023-01-17T17:39:57.037Z,98700.34
2023-01-17T17:42:25.630Z,98705.50
2023-01-17T17:44:53.643Z,98714.00
2023-01-17T17:47:21.526Z,98712.47
2023-01-17T17:49:49.440Z,98709.56
2023-01-17T17:52:19.064Z,98710.38
2023-01-17T17:54:46.903Z,98713.59
2023-01-17T17:57:15.138Z,98722.69
2023-01-17T17:59:43.091Z,98724.91
2023-01-17T18:02:12.128Z,98736.47
2023-01-17T18:04:40.131Z,98732.84
2023-01-17T18:07:08.264Z,98734.53
2023-01-17T18:09:39.313Z,98731.63
2023-01-17T18:12:07.885Z,98725.47
2023-01-17T18:14:36.283Z,98720.16
2023-01-17T18:17:04.633Z,98722.53
2023-01-17T18:19:32.634Z,98720.72
2023-01-17T18:22:01.070Z,98729.22
2023-01-17T18:24:29.456Z,98727.53
2023-01-17T18:26:59.140Z,98738.59
2023-01-17T18:29:29.197Z,98742.63
2023-01-17T18:31:57.207Z,98736.63
2023-01-17T18:34:29.235Z,98728.53
2023-01-17T18:36:58.941Z,98733.81
2023-01-17T18:39:28.161Z,98741.38
2023-01-17T18:41:57.163Z,98733.41
2023-01-17T18:44:27.745Z,98740.09
2023-01-17T18:46:58.114Z,98740.81
2023-01-17T18:49:26.132Z,98740.81
2023-01-17T18:51:54.017Z,98744.56
2023-01-17T18:54:21.938Z,98735.31
2023-01-17T18:56:51.048Z,98738.69
2023-01-17T18:59:19.664Z,98752.91
2023-01-17T19:01:48.993Z,98753.72
2023-01-17T19:04:17.889Z,98764.06
2023-01-17T19:06:47.936Z,98763.94
2023-01-17T19:09:17.075Z,98755.53
2023-01-17T19:11:46.234Z,98760.00
2023-01-17T19:14:14.544Z,98754.94
2023-01-17T19:16:43.118Z,98761.94
2023-01-17T19:19:14.414Z,98764.91
2023-01-17T19:21:42.600Z,98776.72
2023-01-17T19:24:13.038Z,98768.88
2023-01-17T19:26:41.310Z,98776.13
2023-01-17T19:29:09.122Z,98770.41
2023-01-17T19:31:42.311Z,98776.97
2023-01-17T19:34:13.767Z,98773.88
2023-01-17T19:36:42.120Z,98772.50
2023-01-17T19:39:10.491Z,98781.69
2023-01-17T19:41:42.097Z,98783.66
2023-01-17T19:44:11.979Z,98784.88
2023-01-17T19:46:40.007Z,98789.28
2023-01-17T19:49:09.794Z,98791.22
2023-01-17T19:51:39.662Z,98787.97
2023-01-17T19:54:08.400Z,98786.81
2023-01-17T19:56:36.753Z,98798.94
2023-01-17T19:59:04.844Z,98800.59
2023-01-17T20:01:35.225Z,98798.44
2023-01-17T20:04:04.658Z,98796.25
2023-01-17T20:06:34.534Z,98800.06
2023-01-17T20:09:04.588Z,98794.16
2023-01-17T20:11:33.105Z,98804.41
2023-01-17T20:14:01.181Z,98794.69
2023-01-17T20:16:31.616Z,98800.00
2023-01-17T20:19:00.202Z,98802.06
2023-01-17T20:21:30.548Z,98807.72
2023-01-17T20:24:00.492Z,98801.81
2023-01-17T20:26:34.955Z,98797.03
2023-01-17T20:29:06.771Z,98797.31
2023-01-17T20:31:38.107Z,98798.91
2023-01-17T20:34:08.082Z,98807.00
2023-01-17T20:36:37.009Z,98804.13
2023-01-17T20:39:05.865Z,98800.84
2023-01-17T20:41:37.297Z,98795.31
2023-01-17T20:44:06.851Z,98807.44
2023-01-17T20:46:40.405Z,98808.81
2023-01-17T20:49:13.320Z,98806.81
2023-01-17T20:51:42.061Z,98816.06
2023-01-17T20:54:14.229Z,98821.91
2023-01-17T20:56:46.708Z,98825.16
2023-01-17T20:59:17.081Z,98831.66
2023-01-17T21:01:45.582Z,98836.53
2023-01-17T21:04:14.730Z,98847.84
2023-01-17T21:06:43.743Z,98866.69
2023-01-17T21:09:14.135Z,98867.84
2023-01-17T21:11:43.517Z,98874.00
2023-01-17T21:14:11.422Z,98878.00
2023-01-17T21:16:39.495Z,98883.06
2023-01-17T21:19:09.189Z,98889.31
2023-01-17T21:21:37.119Z,98899.69
2023-01-17T21:24:05.899Z,98901.13
2023-01-17T21:26:33.738Z,98904.88
2023-01-17T21:29:03.641Z,98909.09
2023-01-17T21:31:34.734Z,98917.38
2023-01-17T21:34:04.784Z,98909.09
2023-01-17T21:36:34.724Z,98916.53
2023-01-17T21:39:05.383Z,98924.22
2023-01-17T21:41:35.081Z,98925.78
2023-01-17T21:44:07.877Z,98935.56
2023-01-17T21:46:38.326Z,98934.44
2023-01-17T21:49:06.299Z,98938.78
2023-01-17T21:51:52.990Z,98939.00
2023-01-17T21:54:40.889Z,98934.84
2023-01-17T21:57:26.308Z,98939.28
2023-01-17T21:59:55.584Z,98939.72
2023-01-17T22:02:23.923Z,98941.03
2023-01-17T22:04:51.880Z,98950.78
2023-01-17T22:07:19.789Z,98949.00
2023-01-17T22:09:47.663Z,98944.44
2023-01-17T22:12:15.525Z,98947.06
2023-01-17T22:14:43.380Z,98950.69
2023-01-17T22:17:12.576Z,98958.50
2023-01-17T22:19:40.537Z,98959.22
2023-01-17T22:22:08.441Z,98961.84
2023-01-17T22:24:36.285Z,98954.78
2023-01-17T22:27:04.236Z,98955.03
2023-01-17T22:29:33.957Z,98955.97
2023-01-17T22:32:01.920Z,98958.88
2023-01-17T22:34:31.164Z,98958.25
2023-01-17T22:36:59.086Z,98959.09
2023-01-17T22:39:26.962Z,98954.44
2023-01-17T22:41:54.848Z,98954.19
2023-01-17T22:44:22.751Z,98943.03
2023-01-17T22:46:50.628Z,98940.16
2023-01-17T22:49:23.284Z,98948.88
2023-01-17T22:51:52.641Z,98937.13
2023-01-17T22:54:20.508Z,98933.88
2023-01-17T22:56:48.603Z,98939.16
2023-01-17T22:59:16.651Z,98937.00
2023-01-17T23:01:44.575Z,98940.59
2023-01-17T23:04:16.020Z,98937.97
2023-01-17T23:06:44.483Z,98935.53
2023-01-17T23:09:15.541Z,98935.09
2023-01-17T23:11:46.727Z,98928.84
2023-01-17T23:14:17.628Z,98935.22
2023-01-17T23:17:05.137Z,98930.75
2023-01-17T23:19:35.796Z,98921.88
2023-01-17T23:22:19.172Z,98922.72
2023-01-17T23:24:51.120Z,98920.09
2023-01-17T23:27:39.095Z,98920.31
2023-01-17T23:30:10.775Z,98922.97
2023-01-17T23:32:38.964Z,98926.78
2023-01-17T23:35:07.793Z,98926.44
2023-01-17T23:37:52.884Z,98917.91
2023-01-17T23:40:22.354Z,98911.78
2023-01-17T23:43:07.504Z,98911.16
2023-01-17T23:45:36.845Z,98897.63
2023-01-17T23:48:09.282Z,98896.78
2023-01-17T23:50:37.866Z,98894.25
2023-01-17T23:53:07.960Z,98894.75
2023-01-17T23:55:39.316Z,98890.28
2023-01-17T23:58:08.550Z,98891.13
